This is the latest recevied weather packets stored in our database for station/object IR9AK-10. If no packets are shown the sender has not sent any weather packets the latest 1 day(s).
| Time | Temp. | Humidity | Pressure | Rain* | Wind** | Luminosity | Snow |
|---|---|---|---|---|---|---|---|
| 1788630086 | 40.56° C | 36% | 1063.5 hPa | - | - | - | - |
| 1788629487 | 40.56° C | 37% | 1063.4 hPa | - | - | - | - |
| 1788628888 | 40.56° C | 37% | 1063.3 hPa | - | - | - | - |
| 1788628289 | 40.56° C | 36% | 1063.4 hPa | - | - | - | - |
| 1788627691 | 40.56° C | 37% | 1063.5 hPa | - | - | - | - |
| 1788627091 | 41.11° C | 37% | 1063.4 hPa | - | - | - | - |
| 1788626492 | 41.11° C | 36% | 1063.4 hPa | - | - | - | - |
| 1788625893 | 41.11° C | 37% | 1063.4 hPa | - | - | - | - |
| 1788625293 | 41.11° C | 37% | 1063.5 hPa | - | - | - | - |
| 1788624693 | 41.11° C | 34% | 1063.5 hPa | - | - | - | - |
| 1788624095 | 41.11° C | 36% | 1063.6 hPa | - | - | - | - |
| 1788623495 | 40.56° C | 37% | 1063.5 hPa | - | - | - | - |
| 1788622896 | 41.11° C | 37% | 1063.5 hPa | - | - | - | - |
| 1788622296 | 41.11° C | 37% | 1063.6 hPa | - | - | - | - |
| 1788621696 | 41.11° C | 34% | 1063.5 hPa | - | - | - | - |
| 1788621096 | 42.22° C | 30% | 1063.4 hPa | - | - | - | - |
| 1788620497 | 44.44° C | 30% | 1063.4 hPa | - | - | - | - |
| 1788619897 | 46.67° C | 27% | 1063.3 hPa | - | - | - | - |
| 1788619298 | 48.33° C | 26% | 1063.3 hPa | - | - | - | - |
| 1788618699 | 47.22° C | 27% | 1063.3 hPa | - | - | - | - |
| 1788618101 | 41.67° C | 34% | 1063.5 hPa | - | - | - | - |
| 1788617503 | 41.67° C | 34% | 1063.5 hPa | - | - | - | - |
| 1788616904 | 41.67° C | 34% | 1063.6 hPa | - | - | - | - |
| 1788616305 | 41.11° C | 35% | 1063.7 hPa | - | - | - | - |
| 1788615706 | 41.11° C | 35% | 1063.7 hPa | - | - | - | - |
* Rain since midnight (hover to see other rain measurements)
** Current wind speed in m/s (hover to see current wind gust speed)